Terminal Aerodrome Forecast
Issued by NWS North Platte, NE

Home | Current Version | Previous Version | Text Only | Print | Product List | Glossary On
Versions: 1 2 3 4 5 6 7 8 9 10 11 12 13 14 15
108
FTUS43 KLBF 230520
TAFLBF
TAF
KLBF 230520Z 2306/2406 01005KT P6SM BKN200
     FM230900 36009KT P6SM VCSH BKN100
     FM231600 34012G21KT P6SM SCT070
     FM240000 34010KT P6SM FEW200
     FM240200 01006KT P6SM FEW250=

USA.gov is the U.S. government's official web portal to all federal, state and local government web resources and services.